Time;durP1;ratioP1;P1;durP2;ratioP2;P2;SDS_P1;SDS_P2;PMS_P1;PMS_P2;Temp;Humidity;BMP_temperature;BMP_pressure;BME280_temperature;BME280_humidity;BME280_pressure;Samples;Min_cycle;Max_cycle;Signal;HPM_P1;HPM_P2
2021/07/23 00:01:19;;;;;;;0.40;0.00;;;;;;;22.49;54.27;100647.56;126153;1096;114249;-59
2021/07/23 00:03:48;;;;;;;0.40;0.03;;;;;;;22.51;53.81;100648.33;126187;1095;102897;-59
2021/07/23 00:06:30;;;;;;;0.40;0.00;;;;;;;22.50;54.13;100646.59;125990;1096;114612;-59
2021/07/23 00:08:58;;;;;;;0.40;0.00;;;;;;;22.46;54.65;100649.62;126185;1096;103024;-59
2021/07/23 00:11:25;;;;;;;0.40;0.00;;;;;;;22.52;54.47;100644.61;126081;1096;114478;-59
2021/07/23 00:13:52;;;;;;;0.40;0.00;;;;;;;22.60;54.07;100646.77;126136;1095;103011;-59
2021/07/23 00:16:19;;;;;;;0.40;0.00;;;;;;;22.63;54.72;100646.57;126139;1096;102975;-59
2021/07/23 00:18:47;;;;;;;0.40;0.00;;;;;;;22.65;54.72;100647.31;126055;1096;114188;-59
2021/07/23 00:21:14;;;;;;;0.40;0.00;;;;;;;22.58;55.42;100643.32;126066;1095;104496;-59
2021/07/23 00:23:41;;;;;;;0.40;0.00;;;;;;;22.53;55.29;100642.78;126043;1096;114353;-59
2021/07/23 00:26:12;;;;;;;0.40;0.00;;;;;;;22.49;55.53;100639.41;126228;1096;103313;-59
2021/07/23 00:28:40;;;;;;;0.40;0.00;;;;;;;22.46;55.56;100647.80;126033;1096;103007;-59
2021/07/23 00:31:08;;;;;;;0.40;0.00;;;;;;;22.40;55.45;100641.94;126764;1095;113143;-59
2021/07/23 00:33:35;;;;;;;0.40;0.00;;;;;;;22.34;56.04;100637.80;126123;1095;103013;-59
2021/07/23 00:36:02;;;;;;;0.40;0.00;;;;;;;22.31;55.60;100638.00;126020;1095;114098;-59
2021/07/23 00:38:29;;;;;;;0.40;0.00;;;;;;;22.29;55.19;100640.83;126149;1095;103329;-59
2021/07/23 00:40:57;;;;;;;0.40;0.00;;;;;;;22.37;55.13;100640.31;126125;1096;103042;-59
2021/07/23 00:43:24;;;;;;;0.40;0.00;;;;;;;22.43;55.10;100639.00;125996;1096;114460;-59
2021/07/23 00:45:53;;;;;;;0.40;0.00;;;;;;;22.37;55.69;100643.03;126134;1095;102984;-59
2021/07/23 00:48:20;;;;;;;0.40;0.00;;;;;;;22.30;55.19;100642.57;126359;1096;114284;-59
2021/07/23 00:50:48;;;;;;;0.40;0.00;;;;;;;22.30;55.88;100644.39;126096;1096;103882;-59
2021/07/23 00:53:15;;;;;;;0.40;0.00;;;;;;;22.29;55.48;100640.83;126055;1096;113886;-59
2021/07/23 00:55:43;;;;;;;0.40;0.00;;;;;;;22.33;55.64;100641.48;125956;1096;102882;-59
2021/07/23 00:58:11;;;;;;;0.40;0.00;;;;;;;22.41;55.06;100640.97;126032;1096;103092;-59
2021/07/23 01:00:40;;;;;;;0.40;0.00;;;;;;;22.37;55.60;100637.60;126046;1096;114297;-59
2021/07/23 01:03:08;;;;;;;0.40;0.00;;;;;;;22.40;54.92;100641.94;126154;1096;103044;-60
2021/07/23 01:05:36;;;;;;;0.40;0.00;;;;;;;22.32;55.43;100645.17;125901;1096;114521;-59
2021/07/23 01:08:04;;;;;;;0.40;0.00;;;;;;;22.26;55.93;100641.06;126179;1095;103039;-60
2021/07/23 01:10:32;;;;;;;0.40;0.00;;;;;;;22.25;55.57;100635.75;125974;1096;103033;-59
2021/07/23 01:13:00;;;;;;;0.40;0.00;;;;;;;22.26;55.84;100637.45;125877;1096;114571;-59
2021/07/23 01:15:27;;;;;;;0.40;0.00;;;;;;;22.28;56.13;100641.80;126076;1096;102884;-59
2021/07/23 01:17:54;;;;;;;0.40;0.00;;;;;;;22.26;55.99;100635.63;125910;1096;114406;-59
2021/07/23 01:20:26;;;;;;;0.40;0.00;;;;;;;22.25;56.19;100641.17;125920;1096;102982;-59
2021/07/23 01:22:55;;;;;;;0.40;0.00;;;;;;;22.30;56.02;100638.97;126114;1095;102908;-60
2021/07/23 01:25:22;;;;;;;0.40;0.00;;;;;;;22.32;55.64;100637.88;125838;1095;114368;-60
2021/07/23 01:27:51;;;;;;;0.40;0.00;;;;;;;22.29;56.08;100632.69;126171;1095;103319;-59
2021/07/23 01:30:21;;;;;;;0.40;0.00;;;;;;;22.23;55.50;100632.27;126074;1096;114166;-60
2021/07/23 01:32:48;;;;;;;0.40;0.00;;;;;;;22.27;55.67;100628.34;126379;1095;105616;-60
2021/07/23 01:35:16;;;;;;;0.40;0.00;;;;;;;22.19;56.17;100632.49;126048;1095;113365;-60
2021/07/23 01:37:45;;;;;;;0.40;0.00;;;;;;;22.15;56.50;100630.09;126575;1095;102882;-60
2021/07/23 01:40:14;;;;;;;0.40;0.00;;;;;;;22.15;56.55;100627.38;126180;1095;103035;-60
2021/07/23 01:42:46;;;;;;;0.40;0.00;;;;;;;22.16;56.13;100624.55;126198;1095;114307;-60
2021/07/23 01:45:16;;;;;;;0.40;0.00;;;;;;;22.14;56.22;100618.39;127235;1095;102893;-60
2021/07/23 01:47:43;;;;;;;0.40;0.00;;;;;;;22.16;56.46;100623.70;126115;1095;114379;-59
2021/07/23 01:50:11;;;;;;;0.40;0.00;;;;;;;22.09;56.79;100617.84;126157;1096;102919;-60
2021/07/23 01:52:38;;;;;;;0.40;0.00;;;;;;;22.09;56.55;100617.84;126216;1096;102910;-60
2021/07/23 01:55:06;;;;;;;0.40;0.00;;;;;;;22.09;56.91;100619.70;125999;1095;114375;-60
2021/07/23 01:57:35;;;;;;;0.40;0.00;;;;;;;22.08;56.75;100615.25;126336;1096;103047;-60
2021/07/23 02:00:04;;;;;;;0.40;0.00;;;;;;;22.13;56.50;100616.64;126024;1095;114436;-60
2021/07/23 02:02:34;;;;;;;0.40;0.00;;;;;;;22.07;57.12;100619.78;126349;1096;103381;-60
2021/07/23 02:05:02;;;;;;;0.40;0.00;;;;;;;22.05;56.85;100619.04;126137;1095;102985;-59
2021/07/23 02:07:30;;;;;;;0.40;0.00;;;;;;;22.05;57.20;100619.89;125966;1095;114211;-60
2021/07/23 02:09:57;;;;;;;0.40;0.00;;;;;;;22.05;57.43;100616.33;126054;1095;103083;-60
2021/07/23 02:12:24;;;;;;;0.40;0.00;;;;;;;22.07;57.15;100617.06;126031;1096;114644;-60
2021/07/23 02:14:51;;;;;;;0.40;0.00;;;;;;;21.97;57.17;100616.87;126088;1096;102920;-60
2021/07/23 02:17:18;;;;;;;0.40;0.00;;;;;;;21.92;57.06;100607.33;125938;1097;114366;-60
2021/07/23 02:19:47;;;;;;;0.40;0.00;;;;;;;21.94;57.36;100603.53;125983;1095;102930;-60
2021/07/23 02:22:14;;;;;;;0.40;0.00;;;;;;;21.90;57.72;100614.69;126068;1095;102977;-60
2021/07/23 02:24:41;;;;;;;0.40;0.00;;;;;;;21.91;57.93;100608.30;126038;1095;114324;-60
2021/07/23 02:27:11;;;;;;;0.40;0.00;;;;;;;21.88;57.39;100607.56;126157;1096;102995;-60
2021/07/23 02:29:39;;;;;;;0.40;0.00;;;;;;;21.93;57.55;100620.78;125831;1096;114369;-60
2021/07/23 02:32:07;;;;;;;0.40;0.00;;;;;;;21.92;57.80;100612.75;126012;1096;102987;-60
2021/07/23 02:34:35;;;;;;;0.40;0.00;;;;;;;21.87;57.57;100610.35;126103;1094;102993;-60
2021/07/23 02:37:02;;;;;;;0.40;0.10;;;;;;;21.88;58.11;100602.13;126065;1095;114095;-60
2021/07/23 02:39:30;;;;;;;0.40;0.00;;;;;;;21.84;57.72;100611.43;126086;1096;103031;-60
2021/07/23 02:41:57;;;;;;;0.40;0.10;;;;;;;21.86;57.93;100605.93;125993;1095;114375;-60
2021/07/23 02:44:24;;;;;;;0.40;0.00;;;;;;;21.85;57.83;100606.89;126120;1095;103025;-60
2021/07/23 02:46:51;;;;;;;0.40;0.00;;;;;;;21.87;57.67;100611.23;126155;1096;103031;-60
2021/07/23 02:49:18;;;;;;;0.40;0.00;;;;;;;21.81;57.83;100606.23;126068;1096;114202;-60
2021/07/23 02:51:45;;;;;;;0.40;0.00;;;;;;;21.80;58.05;100604.49;126078;1095;102955;-60
2021/07/23 02:54:12;;;;;;;0.40;0.03;;;;;;;21.85;57.62;100612.31;126000;1095;114240;-60
2021/07/23 02:56:39;;;;;;;0.40;0.10;;;;;;;21.88;58.38;100615.69;126181;1095;102884;-60
2021/07/23 02:59:06;;;;;;;0.40;0.10;;;;;;;21.93;57.80;100611.78;126140;1096;103021;-60
2021/07/23 03:01:34;;;;;;;0.40;0.00;;;;;;;22.00;58.18;100603.08;126000;1095;114018;-60
2021/07/23 03:04:02;;;;;;;0.40;0.00;;;;;;;21.99;58.03;100603.19;126105;1095;103037;-60
2021/07/23 03:06:29;;;;;;;0.40;0.00;;;;;;;21.99;57.10;100608.62;126032;1095;114192;-60
2021/07/23 03:08:56;;;;;;;0.40;0.00;;;;;;;21.97;57.91;100607.88;126157;1095;102906;-60
2021/07/23 03:11:23;;;;;;;0.40;0.00;;;;;;;22.02;57.91;100611.13;126017;1096;113302;-59
2021/07/23 03:13:50;;;;;;;0.40;0.00;;;;;;;21.96;57.60;100603.42;126086;1096;103348;-59
2021/07/23 03:16:17;;;;;;;0.40;0.00;;;;;;;21.90;57.58;100601.13;126075;1096;103332;-60
2021/07/23 03:18:45;;;;;;;0.40;0.00;;;;;;;21.91;57.83;100602.88;125996;1095;114199;-60
2021/07/23 03:21:12;;;;;;;0.40;0.00;;;;;;;21.93;58.05;100606.36;126154;1095;103351;-60
2021/07/23 03:23:39;;;;;;;0.40;0.00;;;;;;;21.94;57.80;100597.22;126102;1095;114365;-60
2021/07/23 03:26:07;;;;;;;0.40;0.00;;;;;;;21.93;57.71;100595.52;126148;1096;102898;-60
2021/07/23 03:28:34;;;;;;;0.40;0.00;;;;;;;21.84;57.97;100592.45;126417;1096;103007;-60
2021/07/23 03:31:02;;;;;;;0.40;0.00;;;;;;;21.82;58.42;100597.13;126077;1095;114220;-60
2021/07/23 03:33:29;;;;;;;0.40;0.00;;;;;;;21.81;57.86;100591.83;126104;1095;103019;-60
2021/07/23 03:35:56;;;;;;;0.40;0.00;;;;;;;21.85;57.51;100593.34;126059;1096;114478;-60
2021/07/23 03:38:24;;;;;;;0.40;0.00;;;;;;;21.88;58.16;100588.58;126102;1095;102906;-60
2021/07/23 03:40:51;;;;;;;0.40;0.00;;;;;;;21.86;58.11;100597.80;126107;1096;103032;-60
2021/07/23 03:43:18;;;;;;;0.40;0.00;;;;;;;21.89;57.89;100597.56;126048;1095;114234;-59
2021/07/23 03:45:45;;;;;;;0.40;0.03;;;;;;;22.02;57.38;100603.00;126075;1096;102988;-60
2021/07/23 03:48:12;;;;;;;0.40;0.00;;;;;;;22.10;57.18;100602.42;126007;1095;114212;-60
2021/07/23 03:50:39;;;;;;;0.40;0.00;;;;;;;22.04;57.05;100595.59;126065;1095;103028;-60
2021/07/23 03:53:06;;;;;;;0.40;0.00;;;;;;;22.00;56.53;100596.80;126114;1095;103096;-62
2021/07/23 03:55:34;;;;;;;0.40;0.00;;;;;;;21.97;57.69;100595.17;125976;1095;114512;-60
2021/07/23 03:58:04;;;;;;;0.40;0.00;;;;;;;22.00;57.63;100596.80;126130;1094;103084;-60
2021/07/23 04:00:31;;;;;;;0.40;0.00;;;;;;;22.05;57.57;100600.05;126395;1096;114359;-60
2021/07/23 04:02:58;;;;;;;0.40;0.00;;;;;;;22.04;58.00;100590.17;126118;1095;102939;-59
2021/07/23 04:05:26;;;;;;;0.40;0.00;;;;;;;22.09;57.17;100598.00;126038;1095;114405;-60
2021/07/23 04:07:56;;;;;;;0.40;0.00;;;;;;;22.19;56.67;100591.80;126123;1095;102956;-60
2021/07/23 04:10:25;;;;;;;0.40;0.00;;;;;;;22.18;56.60;100594.63;125988;1095;102917;-60
2021/07/23 04:12:53;;;;;;;0.40;0.00;;;;;;;22.09;57.07;100588.00;126149;1096;114882;-60
2021/07/23 04:15:20;;;;;;;0.40;0.00;;;;;;;22.16;57.25;100594.70;126068;1096;102916;-60
2021/07/23 04:17:47;;;;;;;0.40;0.00;;;;;;;22.23;57.16;100596.98;126376;1095;114377;-59
2021/07/23 04:20:15;;;;;;;0.40;0.00;;;;;;;22.20;57.19;100590.80;126094;1096;103014;-60
2021/07/23 04:22:42;;;;;;;0.40;0.00;;;;;;;22.25;56.61;100597.77;126261;1095;102975;-61
2021/07/23 04:25:11;;;;;;;0.40;0.00;;;;;;;22.21;56.74;100591.68;125991;1096;114185;-61
2021/07/23 04:27:38;;;;;;;0.40;0.00;;;;;;;22.31;56.58;100592.76;126176;1095;103091;-62
2021/07/23 04:30:06;;;;;;;0.40;0.00;;;;;;;22.32;55.93;100590.90;125979;1095;114202;-60
2021/07/23 04:32:33;;;;;;;0.40;0.00;;;;;;;22.30;57.06;100592.84;126227;1096;103029;-61
2021/07/23 04:35:01;;;;;;;0.40;0.00;;;;;;;22.24;56.64;100588.73;126149;1095;103142;-60
2021/07/23 04:37:28;;;;;;;0.40;0.00;;;;;;;22.17;57.43;100582.89;125934;1096;114200;-61
2021/07/23 04:39:55;;;;;;;0.40;0.00;;;;;;;22.16;58.22;100585.72;126045;1096;102889;-61
2021/07/23 04:42:22;;;;;;;0.40;0.00;;;;;;;22.24;57.17;100585.17;126041;1096;113710;-61
2021/07/23 04:44:49;;;;;;;0.40;0.00;;;;;;;22.37;57.49;100583.33;126063;1096;103061;-61
2021/07/23 04:47:16;;;;;;;0.40;0.00;;;;;;;;;;125974;1095;115467;-61
2021/07/23 04:49:44;;;;;;;0.40;0.00;;;;;;;22.37;58.59;100580.61;126081;1095;102894;-61
2021/07/23 04:52:11;;;;;;;0.40;0.00;;;;;;;22.41;57.11;100575.84;126137;1095;103361;-61
2021/07/23 04:54:38;;;;;;;0.40;0.00;;;;;;;22.50;56.71;100569.73;126053;1095;114556;-61
2021/07/23 04:57:05;;;;;;;0.40;0.00;;;;;;;22.59;55.96;100577.16;126083;1096;103051;-61
2021/07/23 04:59:33;;;;;;;0.40;0.00;;;;;;;22.63;56.12;100575.98;125955;1095;114383;-61
2021/07/23 05:02:00;;;;;;;0.40;0.00;;;;;;;22.60;55.78;100572.63;126243;1096;102894;-61
2021/07/23 05:04:28;;;;;;;0.40;0.00;;;;;;;22.61;55.35;100579.80;126006;1095;102888;-61
2021/07/23 05:06:55;;;;;;;0.40;0.00;;;;;;;22.63;55.62;100575.09;125975;1095;114365;-61
2021/07/23 05:09:22;;;;;;;0.40;0.00;;;;;;;22.68;56.00;100575.63;126130;1096;102892;-61
2021/07/23 05:11:49;;;;;;;0.40;0.00;;;;;;;22.70;56.88;100569.11;126013;1096;114738;-60
2021/07/23 05:14:17;;;;;;;0.40;0.00;;;;;;;22.65;57.03;100568.58;126150;1095;103033;-61
2021/07/23 05:16:45;;;;;;;0.40;0.00;;;;;;;22.71;57.05;100569.95;126107;1094;103032;-61
2021/07/23 05:19:15;;;;;;;0.40;0.00;;;;;;;22.76;56.36;100572.34;125759;1096;114410;-61
2021/07/23 05:21:44;;;;;;;0.40;0.00;;;;;;;22.80;55.68;100581.99;126020;1095;102963;-61
2021/07/23 05:24:12;;;;;;;0.40;0.00;;;;;;;22.82;56.20;100575.47;126039;1096;114562;-61
2021/07/23 05:26:39;;;;;;;0.40;0.00;;;;;;;22.94;56.16;100573.67;125913;1095;103028;-61
2021/07/23 05:29:07;;;;;;;0.40;0.00;;;;;;;23.04;55.20;100572.00;126107;1095;102933;-61
2021/07/23 05:31:35;;;;;;;0.40;0.00;;;;;;;23.06;56.64;100566.45;126064;1096;114007;-61
2021/07/23 05:34:03;;;;;;;0.40;0.00;;;;;;;23.07;56.01;100570.02;126367;1095;102972;-61
2021/07/23 05:36:30;;;;;;;0.40;0.00;;;;;;;23.06;54.92;100580.03;125935;1095;114271;-61
2021/07/23 05:38:57;;;;;;;0.40;0.00;;;;;;;23.02;54.70;100578.53;126123;1096;103131;-61
2021/07/23 05:41:24;;;;;;;0.40;0.00;;;;;;;23.06;54.96;100574.59;126003;1096;114306;-61
2021/07/23 05:43:51;;;;;;;0.40;0.00;;;;;;;23.11;54.88;100577.83;126167;1096;102893;-61
2021/07/23 05:46:18;;;;;;;0.40;0.00;;;;;;;23.08;55.33;100577.19;126133;1096;102891;-59
2021/07/23 05:48:46;;;;;;;0.40;0.00;;;;;;;23.15;55.36;100576.64;126014;1096;114498;-59
2021/07/23 05:51:13;;;;;;;0.40;0.00;;;;;;;23.21;55.95;100567.15;126207;1096;102897;-59
2021/07/23 05:53:40;;;;;;;0.40;0.00;;;;;;;23.26;54.75;100574.93;126093;1095;114374;-59
2021/07/23 05:56:07;;;;;;;0.40;0.00;;;;;;;23.28;54.52;100570.26;126135;1095;102896;-59
2021/07/23 05:58:35;;;;;;;0.40;0.00;;;;;;;23.26;54.18;100574.93;125982;1095;102993;-59
2021/07/23 06:01:06;;;;;;;0.40;0.00;;;;;;;23.25;54.61;100570.50;126035;1095;114115;-59
2021/07/23 06:03:36;;;;;;;0.40;0.00;;;;;;;23.28;54.54;100567.54;126117;1096;103039;-59
2021/07/23 06:06:04;;;;;;;0.40;0.00;;;;;;;23.35;54.14;100569.67;126436;1095;114708;-60
2021/07/23 06:08:51;;;;;;;0.40;0.00;;;;;;;23.36;54.11;100575.96;126319;1096;103312;-60
2021/07/23 06:11:18;;;;;;;0.40;0.00;;;;;;;23.42;54.20;100577.33;125994;1096;114374;-60
2021/07/23 06:13:45;;;;;;;0.40;0.00;;;;;;;23.49;54.25;100568.58;126058;1095;103245;-60
2021/07/23 06:16:13;;;;;;;0.40;0.00;;;;;;;23.57;53.71;100564.41;126127;1095;102966;-60
2021/07/23 06:18:40;;;;;;;0.40;0.00;;;;;;;23.65;53.76;100564.67;126172;1096;114727;-60
2021/07/23 06:21:08;;;;;;;0.40;0.00;;;;;;;23.69;53.95;100568.88;126079;1096;103054;-60
2021/07/23 06:23:36;;;;;;;0.40;0.00;;;;;;;23.63;53.12;100567.52;126161;1095;114946;-60
2021/07/23 06:26:04;;;;;;;0.40;0.00;;;;;;;23.61;53.69;100572.19;126389;1096;102887;-60
2021/07/23 06:28:31;;;;;;;0.40;0.00;;;;;;;23.58;53.86;100566.13;126099;1095;102886;-60
2021/07/23 06:31:02;;;;;;;0.40;0.00;;;;;;;23.58;53.69;100566.13;125972;1095;114229;-60
2021/07/23 06:33:30;;;;;;;0.40;0.00;;;;;;;23.60;53.48;100566.88;126024;1096;102897;-60
2021/07/23 06:35:58;;;;;;;0.40;0.00;;;;;;;23.57;53.35;100564.41;125988;1095;114771;-60
2021/07/23 06:38:25;;;;;;;0.40;0.00;;;;;;;23.65;53.52;100561.95;125844;1095;102911;-60
2021/07/23 06:40:53;;;;;;;0.40;0.00;;;;;;;23.65;52.82;100565.52;126045;1095;102927;-60
2021/07/23 06:43:21;;;;;;;0.40;0.00;;;;;;;23.74;53.32;100560.34;125976;1096;114547;-60
2021/07/23 06:45:55;;;;;;;0.40;0.00;;;;;;;23.92;53.11;100566.22;126228;1094;102978;-60
2021/07/23 06:48:23;;;;;;;0.40;0.00;;;;;;;23.97;52.38;100569.44;125955;1095;114327;-60
2021/07/23 06:50:50;;;;;;;0.40;0.00;;;;;;;24.07;52.39;100569.55;126034;1095;102929;-60
2021/07/23 06:53:18;;;;;;;0.40;0.00;;;;;;;24.07;51.98;100564.11;125787;1095;114488;-60
2021/07/23 06:55:46;;;;;;;0.40;0.00;;;;;;;24.14;52.29;100570.80;126182;1096;103014;-60
2021/07/23 06:58:13;;;;;;;0.40;0.00;;;;;;;24.17;52.61;100576.84;126476;1096;102920;-60
2021/07/23 07:00:43;;;;;;;0.40;0.00;;;;;;;24.27;51.64;100568.81;125973;1094;114743;-60
2021/07/23 07:03:10;;;;;;;0.40;0.00;;;;;;;24.38;51.49;100570.66;126089;1095;102962;-60
2021/07/23 07:05:37;;;;;;;0.40;0.00;;;;;;;24.44;50.71;100569.28;126005;1095;114521;-61
2021/07/23 07:08:05;;;;;;;0.40;0.00;;;;;;;24.48;50.64;100570.75;126060;1095;102887;-60
2021/07/23 07:10:33;;;;;;;0.40;0.00;;;;;;;24.43;50.62;100564.82;126216;1095;102905;-60
2021/07/23 07:13:01;;;;;;;0.40;0.00;;;;;;;24.46;50.40;100568.16;125932;1095;114454;-59
2021/07/23 07:15:28;;;;;;;0.40;0.00;;;;;;;24.49;50.34;100572.49;125926;1096;102984;-59
2021/07/23 07:17:59;;;;;;;0.40;0.00;;;;;;;24.53;50.82;100565.80;126022;1096;114213;-59
2021/07/23 07:20:27;;;;;;;0.40;0.00;;;;;;;24.55;49.12;100577.41;126142;1096;102914;-60
2021/07/23 07:22:55;;;;;;;0.40;0.00;;;;;;;24.50;49.25;100574.23;126134;1096;103173;-59
2021/07/23 07:25:24;;;;;;;0.40;0.00;;;;;;;24.46;48.02;100575.45;125925;1095;114281;-60
2021/07/23 07:27:54;;;;;;;0.40;0.00;;;;;;;24.43;48.28;100571.15;126205;1095;103086;-60
2021/07/23 07:30:21;;;;;;;0.40;0.00;;;;;;;24.49;47.66;100567.05;126426;1096;114784;-60
2021/07/23 07:32:49;;;;;;;0.40;0.00;;;;;;;24.48;47.04;100565.30;126055;1096;102890;-60
2021/07/23 07:35:17;;;;;;;0.40;0.00;;;;;;;24.46;49.01;100568.16;126005;1095;114732;-60
2021/07/23 07:37:44;;;;;;;0.40;0.00;;;;;;;24.51;47.73;100565.05;126077;1095;102898;-60
2021/07/23 07:40:12;;;;;;;0.40;0.00;;;;;;;24.50;46.81;100558.75;126013;1095;105393;-61
2021/07/23 07:42:40;;;;;;;0.40;0.00;;;;;;;24.52;47.27;100559.50;126063;1095;114206;-60
2021/07/23 07:45:08;;;;;;;0.40;0.00;;;;;;;24.52;47.89;100558.61;126141;1095;102811;-60
2021/07/23 07:47:35;;;;;;;0.40;0.00;;;;;;;24.54;47.36;100554.77;126049;1095;114470;-60
2021/07/23 07:50:03;;;;;;;0.40;0.00;;;;;;;24.52;47.34;100547.72;126049;1095;103031;-60
2021/07/23 07:52:30;;;;;;;0.40;0.00;;;;;;;24.59;47.45;100557.13;126222;1095;102876;-60
2021/07/23 07:54:57;;;;;;;0.40;0.00;;;;;;;24.75;47.66;100554.03;125968;1095;114711;-60
2021/07/23 07:57:25;;;;;;;0.40;0.00;;;;;;;24.83;45.11;100553.36;125990;1095;103033;-60
2021/07/23 07:59:53;;;;;;;0.40;0.00;;;;;;;24.84;45.14;100547.77;125890;1096;114394;-60
2021/07/23 08:02:20;;;;;;;0.40;0.00;;;;;;;24.90;45.55;100546.41;126015;1096;102892;-60
2021/07/23 08:04:48;;;;;;;0.40;0.00;;;;;;;24.98;45.97;100549.34;126397;1095;103503;-60
2021/07/23 08:07:20;;;;;;;0.40;0.00;;;;;;;25.02;46.23;100548.09;125977;1095;113286;-60
2021/07/23 08:09:53;;;;;;;0.40;0.00;;;;;;;25.15;45.34;100549.76;126142;1095;102922;-60
2021/07/23 08:12:23;;;;;;;0.40;0.00;;;;;;;25.18;43.78;100546.79;125956;1095;114442;-60
2021/07/23 08:14:51;;;;;;;0.40;0.00;;;;;;;25.20;43.81;100548.39;126303;1095;102893;-61
2021/07/23 08:17:19;;;;;;;0.40;0.00;;;;;;;25.17;44.55;100548.63;125963;1095;114328;-60
2021/07/23 08:19:46;;;;;;;0.40;0.00;;;;;;;25.26;44.16;100546.11;126040;1095;103285;-60
2021/07/23 08:22:14;;;;;;;0.40;0.00;;;;;;;25.39;44.20;100549.53;126077;1096;102844;-60
2021/07/23 08:24:42;;;;;;;0.40;0.00;;;;;;;25.46;44.85;100552.63;125998;1096;114673;-60
2021/07/23 08:27:09;;;;;;;0.40;0.00;;;;;;;25.53;45.05;100543.75;126082;1095;102982;-60
2021/07/23 08:29:36;;;;;;;0.40;0.00;;;;;;;25.62;43.83;100549.39;125997;1095;114847;-61
2021/07/23 08:32:11;;;;;;;0.40;0.00;;;;;;;25.69;45.45;100540.53;126078;1095;102902;-61
2021/07/23 08:34:39;;;;;;;0.40;0.00;;;;;;;25.75;43.51;100541.00;126061;1096;103020;-58
2021/07/23 08:37:07;;;;;;;0.40;0.00;;;;;;;25.85;43.36;100547.38;125881;1095;114715;-60
2021/07/23 08:39:34;;;;;;;0.40;0.00;;;;;;;25.99;44.08;100535.22;125989;1095;103059;-60
2021/07/23 08:42:37;;;;;;;0.40;0.00;;;;;;;26.07;43.12;100537.30;125992;1095;114684;-60
2021/07/23 08:45:06;;;;;;;0.40;0.00;;;;;;;26.24;42.32;100543.98;125832;1099;102959;-60
2021/07/23 08:47:35;;;;;;;0.40;0.00;;;;;;;26.34;42.59;100539.41;125953;1096;114310;-60
2021/07/23 08:50:04;;;;;;;0.40;0.00;;;;;;;26.45;41.81;100539.28;126100;1096;103019;-61
2021/07/23 08:52:47;;;;;;;0.40;0.00;;;;;;;26.59;43.32;100535.30;126177;1095;102921;-60
2021/07/23 08:55:16;;;;;;;0.40;0.00;;;;;;;26.80;42.15;100535.19;126019;1095;114629;-60
2021/07/23 08:57:44;;;;;;;0.40;0.00;;;;;;;26.95;42.54;100529.30;126008;1096;102892;-61
2021/07/23 09:00:15;;;;;;;0.40;0.00;;;;;;;27.09;40.31;100528.88;126383;1095;114656;-61
2021/07/23 09:02:55;;;;;;;0.40;0.00;;;;;;;27.09;41.37;100528.88;126182;1096;102882;-61
2021/07/23 09:05:30;;;;;;;0.40;0.00;;;;;;;27.26;41.26;100523.66;126006;1095;114332;-61
2021/07/23 09:07:59;;;;;;;0.40;0.00;;;;;;;27.47;41.62;100521.66;126367;1096;102956;-59
2021/07/23 09:10:30;;;;;;;0.40;0.00;;;;;;;27.57;41.04;100515.31;126406;1096;102905;-59
2021/07/23 09:13:01;;;;;;;0.40;0.00;;;;;;;27.51;39.66;100522.21;125812;1096;114362;-59
2021/07/23 09:15:33;;;;;;;0.40;0.00;;;;;;;27.41;41.35;100524.98;126206;1096;102900;-59
2021/07/23 09:18:01;;;;;;;0.40;0.00;;;;;;;27.40;41.23;100523.25;126027;1094;114533;-59
2021/07/23 09:20:29;;;;;;;0.40;0.00;;;;;;;27.41;40.62;100522.24;126020;1096;102888;-59
2021/07/23 09:23:01;;;;;;;0.40;0.00;;;;;;;27.56;40.42;100519.05;126785;1095;102887;-59
2021/07/23 09:25:35;;;;;;;0.40;0.00;;;;;;;27.67;39.68;100524.33;125811;1095;114216;-59
2021/07/23 09:28:22;;;;;;;0.40;0.00;;;;;;;27.92;41.40;100519.21;126085;1094;102914;-60
2021/07/23 09:30:50;;;;;;;0.40;0.00;;;;;;;27.97;39.13;100523.21;125972;1095;115308;-59
2021/07/23 09:33:28;;;;;;;0.40;0.00;;;;;;;27.88;40.64;100523.27;125988;1095;103029;-59
2021/07/23 09:35:57;;;;;;;0.40;0.00;;;;;;;27.80;39.62;100519.38;125874;1095;114601;-59
2021/07/23 09:38:33;;;;;;;0.40;0.00;;;;;;;27.70;39.06;100522.16;126141;1095;103158;-59
2021/07/23 09:41:01;;;;;;;0.40;0.00;;;;;;;27.44;39.66;100521.94;126046;1096;103174;-59
2021/07/23 09:43:32;;;;;;;0.40;0.00;;;;;;;27.27;39.82;100526.28;127494;1095;114510;-60
2021/07/23 09:46:17;;;;;;;0.40;0.00;;;;;;;27.12;40.43;100522.25;126719;1095;102986;-59
2021/07/23 09:48:46;;;;;;;0.40;0.00;;;;;;;26.93;41.07;100520.41;125814;1096;114501;-59
2021/07/23 09:51:14;;;;;;;0.40;0.00;;;;;;;26.95;41.17;100526.57;126314;1095;102907;-59
2021/07/23 09:53:41;;;;;;;0.40;0.00;;;;;;;26.97;41.94;100521.84;125989;1095;114808;-59
2021/07/23 09:56:10;;;;;;;0.40;0.00;;;;;;;26.92;41.96;100529.59;126095;1096;102893;-59
2021/07/23 09:58:40;;;;;;;0.40;0.00;;;;;;;26.88;41.84;100520.81;125981;1095;102885;-59
2021/07/23 10:01:18;;;;;;;0.40;0.00;;;;;;;26.92;41.60;100519.52;126021;1095;114487;-59
2021/07/23 10:03:48;;;;;;;0.40;0.00;;;;;;;27.06;41.46;100522.82;126066;1095;102871;-61
2021/07/23 10:06:27;;;;;;;0.40;0.00;;;;;;;27.13;41.05;100522.11;126001;1095;114176;-59
2021/07/23 10:08:57;;;;;;;0.40;0.00;;;;;;;27.28;41.09;100521.66;126001;1094;103039;-59
2021/07/23 10:11:24;;;;;;;0.40;0.00;;;;;;;27.34;41.42;100521.09;125970;1096;115243;-61
2021/07/23 10:13:54;;;;;;;0.40;0.00;;;;;;;27.47;40.34;100507.98;126077;1096;102893;-59
2021/07/23 10:16:21;;;;;;;0.40;0.00;;;;;;;27.64;40.76;100500.01;125931;1095;103441;-59
2021/07/23 10:18:50;;;;;;;0.40;0.00;;;;;;;27.97;40.29;100506.78;125867;1095;113095;-59
2021/07/23 10:21:17;;;;;;;0.40;0.00;;;;;;;28.33;39.11;100503.32;126411;1096;103030;-59
2021/07/23 10:23:45;;;;;;;0.40;0.00;;;;;;;28.88;38.21;100496.03;125999;1096;114409;-59
2021/07/23 10:26:13;;;;;;;0.40;0.00;;;;;;;29.10;37.61;100492.80;126045;1096;103031;-59
2021/07/23 10:28:43;;;;;;;0.40;0.00;;;;;;;30.12;36.65;100495.84;126123;1095;102968;-60
2021/07/23 10:31:27;;;;;;;0.40;0.00;;;;;;;30.51;33.50;100492.56;125850;1096;114190;-61
2021/07/23 10:33:55;;;;;;;0.40;0.00;;;;;;;30.54;33.65;100493.23;125973;1097;103115;-61
2021/07/23 10:36:31;;;;;;;0.40;0.00;;;;;;;30.43;33.27;100480.65;125946;1095;114183;-61
2021/07/23 10:39:07;;;;;;;0.40;0.00;;;;;;;30.24;33.49;100477.16;125902;1096;102901;-61
2021/07/23 10:41:35;;;;;;;0.40;0.00;;;;;;;30.18;33.71;100477.85;125935;1095;114889;-61
2021/07/23 10:44:04;;;;;;;0.40;0.00;;;;;;;29.98;34.67;100483.61;126074;1096;102897;-61
2021/07/23 10:47:02;;;;;;;0.40;0.00;;;;;;;30.60;34.34;100478.83;126046;1096;102983;-61
2021/07/23 10:49:32;;;;;;;0.40;0.00;;;;;;;31.92;33.15;100485.08;125871;1096;114437;-61
2021/07/23 10:52:00;;;;;;;0.40;0.00;;;;;;;32.96;31.21;100476.59;126053;1096;103014;-61
2021/07/23 10:54:36;;;;;;;0.40;0.00;;;;;;;33.78;30.12;100474.94;125975;1095;114222;-61
2021/07/23 10:57:04;;;;;;;0.40;0.00;;;;;;;33.26;28.12;100471.16;125887;1095;103228;-61
2021/07/23 10:59:43;;;;;;;0.40;0.00;;;;;;;33.06;28.89;100469.95;125976;1096;114889;-61
2021/07/23 11:02:10;;;;;;;0.40;0.00;;;;;;;32.63;30.19;100473.17;126154;1095;103033;-61
2021/07/23 11:04:38;;;;;;;0.40;0.00;;;;;;;32.17;31.33;100462.97;126014;1095;102893;-61
2021/07/23 11:07:07;;;;;;;0.40;0.00;;;;;;;32.05;31.13;100473.50;125952;1096;114527;-61
2021/07/23 11:09:35;;;;;;;0.40;0.00;;;;;;;31.91;31.26;100465.98;126073;1096;102996;-61
2021/07/23 11:12:16;;;;;;;0.40;0.00;;;;;;;31.73;31.29;100463.48;126105;1095;114175;-61
2021/07/23 11:15:14;;;;;;;0.40;0.00;;;;;;;31.14;31.93;100459.97;126446;1095;102885;-61
2021/07/23 11:17:49;;;;;;;0.40;0.00;;;;;;;30.76;32.88;100459.59;125783;1096;114342;-61